createdAt,value
2023-02-24T00:00:55.365Z,12.83
2023-02-24T00:03:28.864Z,14.07
2023-02-24T00:06:05.410Z,15.07
2023-02-24T00:08:39.497Z,13.53
2023-02-24T00:11:13.486Z,13.73
2023-02-24T00:13:47.048Z,14.87
2023-02-24T00:16:20.643Z,14.90
2023-02-24T00:18:53.704Z,14.00
2023-02-24T00:21:26.614Z,14.37
2023-02-24T00:23:59.544Z,13.00
2023-02-24T00:26:32.587Z,14.47
2023-02-24T00:29:10.338Z,14.63
2023-02-24T00:31:43.700Z,17.07
2023-02-24T00:34:16.853Z,12.40
2023-02-24T00:36:49.971Z,10.30
2023-02-24T00:39:33.286Z,13.83
2023-02-24T00:42:08.028Z,13.67
2023-02-24T00:44:44.426Z,12.80
2023-02-24T00:47:17.724Z,12.30
2023-02-24T00:49:51.004Z,18.83
2023-02-24T00:52:27.727Z,14.07
2023-02-24T00:55:00.831Z,14.53
2023-02-24T00:57:35.487Z,11.87
2023-02-24T01:00:16.485Z,12.77
2023-02-24T01:02:49.500Z,15.85
2023-02-24T01:05:22.470Z,16.37
2023-02-24T01:07:55.444Z,13.63
2023-02-24T01:10:28.614Z,12.03
2023-02-24T01:13:01.539Z,13.70
2023-02-24T01:15:34.508Z,12.50
2023-02-24T01:18:11.059Z,15.90
2023-02-24T01:20:44.192Z,14.50
2023-02-24T01:23:17.085Z,13.67
2023-02-24T01:25:53.366Z,12.83
2023-02-24T01:28:27.466Z,11.20
2023-02-24T01:31:05.269Z,14.10
2023-02-24T01:33:39.123Z,11.07
2023-02-24T01:36:23.032Z,13.27
2023-02-24T01:38:55.913Z,15.93
2023-02-24T01:41:30.772Z,16.80
2023-02-24T01:44:11.289Z,14.20
2023-02-24T01:46:45.540Z,15.03
2023-02-24T01:49:33.956Z,15.00
2023-02-24T01:52:06.905Z,15.63
2023-02-24T01:54:45.698Z,13.83
2023-02-24T01:57:20.377Z,11.37
2023-02-24T01:59:54.295Z,15.13
2023-02-24T02:02:27.386Z,15.73
2023-02-24T02:05:05.494Z,13.93
2023-02-24T02:07:40.300Z,11.87
2023-02-24T02:10:15.274Z,14.60
2023-02-24T02:12:51.058Z,16.07
2023-02-24T02:15:24.295Z,15.03
2023-02-24T02:18:16.091Z,13.40
2023-02-24T02:21:03.454Z,16.53
2023-02-24T02:23:46.085Z,18.53
2023-02-24T02:26:28.649Z,14.43
2023-02-24T02:29:04.925Z,13.13
2023-02-24T02:31:56.387Z,15.90
2023-02-24T02:34:35.601Z,15.13
2023-02-24T02:37:16.705Z,15.57
2023-02-24T02:39:59.256Z,15.20
2023-02-24T02:42:38.192Z,13.93
2023-02-24T02:45:18.831Z,16.70
2023-02-24T02:47:55.169Z,14.00
2023-02-24T02:50:32.436Z,16.27
2023-02-24T02:53:11.006Z,11.80
2023-02-24T02:55:53.976Z,14.90
2023-02-24T02:58:30.425Z,17.63
2023-02-24T03:01:07.114Z,13.37
2023-02-24T03:03:46.343Z,16.40
2023-02-24T03:06:25.062Z,13.63
2023-02-24T03:08:58.302Z,16.30
2023-02-24T03:11:32.460Z,14.23
2023-02-24T03:14:06.775Z,20.67
2023-02-24T03:16:42.066Z,14.83
2023-02-24T03:19:17.099Z,16.27
2023-02-24T03:21:52.927Z,12.63
2023-02-24T03:24:27.925Z,16.60
2023-02-24T03:27:12.957Z,13.33
2023-02-24T03:29:49.118Z,17.27
2023-02-24T03:32:25.562Z,16.73
2023-02-24T03:35:06.909Z,12.83
2023-02-24T03:37:41.022Z,14.30
2023-02-24T03:40:14.996Z,16.13
2023-02-24T03:42:51.579Z,18.70
2023-02-24T03:45:27.748Z,17.63
2023-02-24T03:48:03.938Z,18.00
2023-02-24T03:50:37.956Z,16.03
2023-02-24T03:53:30.651Z,16.07
2023-02-24T03:56:18.451Z,14.20
2023-02-24T03:58:52.042Z,16.37
2023-02-24T04:01:30.887Z,16.97
2023-02-24T04:04:24.111Z,14.87
2023-02-24T04:07:18.223Z,14.00
2023-02-24T04:09:53.218Z,23.23
2023-02-24T04:12:30.410Z,18.83
2023-02-24T04:15:13.628Z,13.80
2023-02-24T04:17:49.555Z,12.73
2023-02-24T04:20:24.472Z,13.63
2023-02-24T04:23:09.357Z,15.07
2023-02-24T04:25:45.262Z,17.97
2023-02-24T04:28:21.148Z,16.67
2023-02-24T04:30:57.341Z,14.20
2023-02-24T04:33:30.711Z,13.13
2023-02-24T04:36:04.904Z,17.70
2023-02-24T04:38:42.181Z,13.57
2023-02-24T04:41:21.285Z,15.60
2023-02-24T04:43:54.637Z,14.30
2023-02-24T04:46:27.674Z,18.40
2023-02-24T04:49:02.290Z,13.23
2023-02-24T04:51:36.239Z,15.47
2023-02-24T04:54:09.935Z,16.90
2023-02-24T04:56:42.838Z,13.33
2023-02-24T04:59:15.938Z,15.20
2023-02-24T05:01:52.871Z,15.10
2023-02-24T05:04:26.447Z,19.23
2023-02-24T05:07:00.159Z,12.87
2023-02-24T05:09:33.158Z,16.23
2023-02-24T05:12:06.106Z,16.40
2023-02-24T05:14:39.539Z,15.07
2023-02-24T05:17:16.260Z,16.40
2023-02-24T05:20:07.629Z,16.33
2023-02-24T05:22:40.644Z,13.57
2023-02-24T05:25:14.326Z,17.00
2023-02-24T05:27:47.524Z,16.33
2023-02-24T05:30:21.016Z,16.63
2023-02-24T05:32:54.286Z,15.77
2023-02-24T05:35:27.484Z,13.00
2023-02-24T05:38:00.380Z,19.33
2023-02-24T05:40:33.314Z,16.53
2023-02-24T05:43:06.354Z,16.20
2023-02-24T05:45:39.277Z,14.63
2023-02-24T05:48:15.202Z,15.00
2023-02-24T05:50:57.285Z,16.40
2023-02-24T05:53:30.628Z,15.30
2023-02-24T05:56:07.057Z,18.43
2023-02-24T05:58:39.986Z,17.00
2023-02-24T06:01:19.002Z,17.37
2023-02-24T06:03:54.287Z,18.23
2023-02-24T06:06:28.640Z,17.10
2023-02-24T06:09:07.279Z,18.87
2023-02-24T06:11:41.262Z,16.13
2023-02-24T06:14:15.918Z,15.80
2023-02-24T06:16:48.984Z,20.60
2023-02-24T06:19:21.924Z,17.63
2023-02-24T06:21:55.596Z,14.50
2023-02-24T06:24:29.666Z,16.23
2023-02-24T06:27:09.523Z,21.63
2023-02-24T06:29:42.591Z,24.20
2023-02-24T06:32:15.594Z,16.20
2023-02-24T06:34:48.686Z,20.97
2023-02-24T06:37:22.824Z,18.57
2023-02-24T06:39:58.176Z,17.30
2023-02-24T06:42:31.510Z,20.23
2023-02-24T06:45:07.549Z,21.87
2023-02-24T06:47:42.678Z,19.10
2023-02-24T06:50:23.260Z,19.43
2023-02-24T06:53:00.609Z,19.70
2023-02-24T06:55:35.465Z,18.37
2023-02-24T06:58:16.262Z,17.53
2023-02-24T07:00:58.419Z,22.53
2023-02-24T07:03:40.440Z,20.83
2023-02-24T07:06:23.977Z,22.13
2023-02-24T07:08:58.582Z,20.13
2023-02-24T07:11:32.290Z,22.60
2023-02-24T07:14:08.180Z,16.93
2023-02-24T07:16:45.127Z,23.67
2023-02-24T07:19:18.204Z,20.07
2023-02-24T07:21:52.565Z,20.93
2023-02-24T07:24:25.493Z,23.23
2023-02-24T07:26:59.423Z,25.27
2023-02-24T07:29:33.150Z,19.13
2023-02-24T07:32:08.420Z,19.37
2023-02-24T07:34:42.107Z,21.87
2023-02-24T07:37:15.286Z,20.77
2023-02-24T07:39:48.348Z,24.48
2023-02-24T07:42:22.336Z,18.20
2023-02-24T07:45:00.663Z,23.07
2023-02-24T07:47:35.763Z,17.90
2023-02-24T07:50:13.980Z,20.90
2023-02-24T07:52:47.931Z,25.17
2023-02-24T07:55:21.552Z,20.80
2023-02-24T07:57:54.666Z,17.17
2023-02-24T08:00:28.196Z,27.23
2023-02-24T08:03:01.361Z,18.97
2023-02-24T08:05:34.917Z,22.83
2023-02-24T08:08:07.893Z,17.03
2023-02-24T08:10:41.252Z,20.73
2023-02-24T08:13:15.010Z,18.37
2023-02-24T08:15:56.486Z,18.77
2023-02-24T08:18:29.531Z,17.03
2023-02-24T08:21:04.746Z,17.80
2023-02-24T08:23:44.464Z,19.27
2023-02-24T08:26:19.482Z,16.37
2023-02-24T08:28:52.428Z,16.53
2023-02-24T08:31:25.872Z,15.90
2023-02-24T08:33:59.068Z,17.13
2023-02-24T08:36:32.153Z,16.43
2023-02-24T08:39:05.940Z,14.33
2023-02-24T08:41:44.904Z,14.20
2023-02-24T08:44:20.225Z,12.17
2023-02-24T08:46:54.074Z,12.50
2023-02-24T08:49:28.186Z,13.97
2023-02-24T08:52:07.116Z,13.13
2023-02-24T08:54:47.947Z,12.93
2023-02-24T08:57:25.866Z,14.03
2023-02-24T08:59:58.775Z,12.70
2023-02-24T09:02:37.252Z,18.43
2023-02-24T09:05:14.185Z,18.37
2023-02-24T09:07:54.512Z,15.93
2023-02-24T09:10:28.447Z,12.97
2023-02-24T09:13:08.539Z,14.27
2023-02-24T09:15:44.506Z,16.67
2023-02-24T09:18:18.360Z,14.37
2023-02-24T09:21:15.819Z,11.83
2023-02-24T09:23:48.795Z,15.97
2023-02-24T09:26:21.929Z,14.53
2023-02-24T09:28:57.703Z,15.30
2023-02-24T09:31:40.563Z,13.60
2023-02-24T09:34:18.391Z,15.27
2023-02-24T09:37:02.827Z,16.00
2023-02-24T09:39:55.626Z,13.73
2023-02-24T09:42:36.252Z,15.07
2023-02-24T09:45:13.662Z,17.90
2023-02-24T09:47:56.302Z,14.30
2023-02-24T09:51:03.631Z,14.00
2023-02-24T09:53:49.094Z,17.23
2023-02-24T09:56:30.938Z,13.57
2023-02-24T09:59:25.942Z,16.30
2023-02-24T10:02:17.777Z,15.30
2023-02-24T10:04:55.126Z,13.47
2023-02-24T10:07:38.335Z,17.83
2023-02-24T10:10:20.507Z,20.40
2023-02-24T10:12:58.257Z,20.77
2023-02-24T10:16:06.977Z,16.77
2023-02-24T10:19:00.887Z,13.97
2023-02-24T10:22:00.322Z,17.27
2023-02-24T10:24:47.172Z,19.90
2023-02-24T10:27:25.028Z,15.23
2023-02-24T10:30:24.124Z,29.27
2023-02-24T10:33:01.459Z,15.30
2023-02-24T10:35:40.256Z,14.03
2023-02-24T10:38:14.492Z,20.33
2023-02-24T10:40:56.599Z,15.30
2023-02-24T10:43:31.424Z,14.63
2023-02-24T10:46:16.990Z,11.43
2023-02-24T10:49:00.453Z,12.37
2023-02-24T10:51:38.262Z,12.13
2023-02-24T10:54:36.439Z,18.83
2023-02-24T10:57:37.352Z,9.30
2023-02-24T11:00:51.634Z,10.03
2023-02-24T11:03:42.001Z,8.33
2023-02-24T11:06:40.490Z,9.53
2023-02-24T11:09:29.786Z,6.03
2023-02-24T11:12:33.639Z,6.47
2023-02-24T11:15:34.180Z,8.00
2023-02-24T11:18:08.605Z,8.27
2023-02-24T11:20:49.409Z,9.57
2023-02-24T11:23:25.986Z,8.77
2023-02-24T11:26:04.525Z,6.93
2023-02-24T11:28:55.942Z,6.07
2023-02-24T11:31:48.825Z,8.43
2023-02-24T11:34:25.013Z,8.87
2023-02-24T11:37:07.209Z,8.43
2023-02-24T11:39:50.020Z,7.87
2023-02-24T11:42:38.241Z,6.50
2023-02-24T11:45:27.764Z,7.83
2023-02-24T11:48:05.351Z,10.13
2023-02-24T11:50:46.403Z,8.97
2023-02-24T11:53:23.849Z,8.17
2023-02-24T11:56:00.624Z,18.70
2023-02-24T11:58:38.486Z,8.30
2023-02-24T12:01:16.015Z,7.03
2023-02-24T12:04:01.384Z,8.33
2023-02-24T12:06:40.380Z,8.67
2023-02-24T12:09:19.562Z,8.40
2023-02-24T12:11:55.594Z,7.47
2023-02-24T12:14:38.004Z,9.57
2023-02-24T12:17:29.324Z,14.77
2023-02-24T12:20:05.439Z,8.60
2023-02-24T12:22:45.937Z,11.27
2023-02-24T12:25:21.142Z,9.00
2023-02-24T12:28:03.209Z,9.83
2023-02-24T12:30:48.810Z,7.30
2023-02-24T12:33:43.755Z,6.83
2023-02-24T12:36:36.002Z,8.68
2023-02-24T12:39:13.111Z,8.50
2023-02-24T12:41:53.341Z,8.43
2023-02-24T12:44:32.908Z,8.60
2023-02-24T12:47:05.813Z,9.02
2023-02-24T12:49:44.855Z,7.28
2023-02-24T12:52:24.747Z,8.40
2023-02-24T12:55:14.286Z,9.05
2023-02-24T12:58:05.888Z,8.73
2023-02-24T13:00:51.227Z,8.57
2023-02-24T13:03:24.167Z,9.25
2023-02-24T13:06:00.131Z,9.32
2023-02-24T13:08:40.595Z,7.55
2023-02-24T13:11:15.421Z,10.55
2023-02-24T13:14:07.815Z,9.57
2023-02-24T13:16:41.682Z,7.40
2023-02-24T13:19:26.966Z,9.57
2023-02-24T13:22:19.889Z,8.48
2023-02-24T13:24:55.933Z,8.47
2023-02-24T13:27:30.221Z,9.80
2023-02-24T13:30:07.791Z,9.40
2023-02-24T13:32:42.015Z,7.80
2023-02-24T13:35:18.059Z,8.60
2023-02-24T13:37:51.523Z,7.97
2023-02-24T13:40:28.894Z,8.03
2023-02-24T13:43:04.596Z,9.13
2023-02-24T13:45:45.034Z,6.73
2023-02-24T13:48:30.207Z,7.03
2023-02-24T13:51:14.382Z,7.60
2023-02-24T13:53:50.376Z,7.93
2023-02-24T13:56:23.237Z,8.53
2023-02-24T13:58:58.918Z,10.67
2023-02-24T14:01:33.218Z,8.80
2023-02-24T14:04:13.313Z,9.27
2023-02-24T14:06:51.780Z,8.80
2023-02-24T14:09:32.848Z,8.97
2023-02-24T14:12:09.197Z,7.63
2023-02-24T14:14:43.927Z,8.30
2023-02-24T14:17:28.637Z,8.87
2023-02-24T14:20:06.567Z,8.48
2023-02-24T14:22:55.099Z,8.67
2023-02-24T14:25:30.587Z,5.10
2023-02-24T14:28:03.714Z,5.37
2023-02-24T14:30:40.983Z,3.63
2023-02-24T14:33:22.851Z,5.53
2023-02-24T14:35:55.941Z,5.77
2023-02-24T14:38:37.080Z,4.27
2023-02-24T14:41:22.315Z,6.37
2023-02-24T14:43:56.334Z,5.87
2023-02-24T14:46:29.585Z,5.23
2023-02-24T14:49:02.540Z,3.83
2023-02-24T14:51:36.250Z,12.73
2023-02-24T14:54:12.361Z,4.00
2023-02-24T14:56:45.356Z,7.07
2023-02-24T14:59:28.962Z,6.37
2023-02-24T15:02:03.163Z,5.10
2023-02-24T15:04:39.198Z,5.43
2023-02-24T15:07:19.671Z,4.80
2023-02-24T15:09:53.302Z,4.40
2023-02-24T15:12:26.173Z,7.00
2023-02-24T15:15:07.874Z,6.67
2023-02-24T15:17:41.531Z,5.00
2023-02-24T15:20:31.532Z,4.57
2023-02-24T15:23:04.861Z,5.20
2023-02-24T15:25:46.512Z,5.43
2023-02-24T15:28:32.452Z,3.47
2023-02-24T15:31:16.284Z,4.40
2023-02-24T15:34:03.525Z,5.17
2023-02-24T15:36:36.837Z,17.63
2023-02-24T15:39:16.984Z,10.63
2023-02-24T15:41:50.767Z,6.93
2023-02-24T15:44:23.655Z,7.53
2023-02-24T15:46:57.475Z,4.53
2023-02-24T15:49:30.383Z,3.97
2023-02-24T15:52:05.124Z,5.17
2023-02-24T15:54:39.525Z,4.83
2023-02-24T15:57:16.339Z,5.13
2023-02-24T15:59:49.308Z,4.17
2023-02-24T16:02:23.380Z,4.10
2023-02-24T16:04:56.323Z,5.83
2023-02-24T16:07:31.198Z,4.70
2023-02-24T16:10:04.671Z,4.23
2023-02-24T16:12:42.805Z,4.00
2023-02-24T16:15:19.401Z,4.53
2023-02-24T16:17:53.018Z,5.03
2023-02-24T16:20:35.503Z,4.60
2023-02-24T16:23:08.370Z,5.77
2023-02-24T16:25:44.968Z,2.33
2023-02-24T16:28:19.330Z,4.97
2023-02-24T16:30:52.734Z,2.77
2023-02-24T16:33:26.103Z,2.17
2023-02-24T16:35:59.143Z,1.63
2023-02-24T16:38:32.052Z,2.00
2023-02-24T16:41:05.035Z,2.95
2023-02-24T16:43:37.970Z,2.40
2023-02-24T16:46:14.940Z,2.43
2023-02-24T16:48:48.901Z,2.73
2023-02-24T16:51:22.500Z,2.53
2023-02-24T16:53:55.767Z,3.97
2023-02-24T16:56:28.684Z,4.30
2023-02-24T16:59:01.578Z,4.43
2023-02-24T17:01:34.626Z,3.70
2023-02-24T17:04:09.769Z,1.37
2023-02-24T17:06:42.845Z,1.40
2023-02-24T17:09:15.845Z,2.17
2023-02-24T17:11:49.022Z,3.03
2023-02-24T17:14:21.958Z,0.90
2023-02-24T17:16:54.966Z,1.50
2023-02-24T17:19:27.860Z,1.53
2023-02-24T17:22:00.785Z,1.53
2023-02-24T17:24:33.837Z,2.27
2023-02-24T17:27:07.776Z,0.90
2023-02-24T17:29:40.805Z,2.80
2023-02-24T17:32:13.982Z,3.13
2023-02-24T17:34:46.968Z,1.60
2023-02-24T17:37:20.822Z,2.27
2023-02-24T17:39:53.702Z,3.13
2023-02-24T17:42:26.706Z,2.00
2023-02-24T17:44:59.919Z,1.20
2023-02-24T17:47:34.336Z,1.90
2023-02-24T17:50:07.561Z,3.23
2023-02-24T17:52:41.267Z,2.13
2023-02-24T17:55:14.172Z,2.70
2023-02-24T17:57:47.102Z,3.67
2023-02-24T18:00:20.087Z,2.47
2023-02-24T18:02:53.786Z,2.83
2023-02-24T18:05:26.849Z,2.20
2023-02-24T18:07:59.836Z,2.23
2023-02-24T18:10:33.324Z,1.60
2023-02-24T18:13:06.273Z,2.83
2023-02-24T18:15:39.674Z,3.77
2023-02-24T18:18:12.636Z,3.67
2023-02-24T18:20:45.735Z,2.93
2023-02-24T18:23:18.810Z,1.90
2023-02-24T18:25:51.696Z,4.37
2023-02-24T18:28:24.566Z,3.07
2023-02-24T18:30:57.970Z,3.20
2023-02-24T18:33:31.094Z,4.13
2023-02-24T18:36:04.122Z,2.53
2023-02-24T18:38:37.037Z,2.43
2023-02-24T18:41:11.895Z,3.27
2023-02-24T18:43:47.558Z,1.43
2023-02-24T18:46:21.464Z,3.20
2023-02-24T18:48:55.937Z,1.80
2023-02-24T18:51:29.004Z,1.53
2023-02-24T18:54:02.088Z,1.50
2023-02-24T18:56:35.735Z,1.77
2023-02-24T18:59:08.715Z,2.73
2023-02-24T19:01:41.638Z,2.57
2023-02-24T19:04:16.252Z,2.30
2023-02-24T19:06:49.265Z,7.00
2023-02-24T19:09:22.592Z,2.70
2023-02-24T19:11:55.591Z,3.73
2023-02-24T19:14:28.566Z,1.80
2023-02-24T19:17:01.875Z,1.60
2023-02-24T19:19:34.834Z,4.90
2023-02-24T19:22:07.779Z,6.83
2023-02-24T19:24:40.682Z,1.90
2023-02-24T19:27:14.771Z,2.33
2023-02-24T19:29:48.218Z,2.77
2023-02-24T19:32:21.639Z,2.57
2023-02-24T19:34:57.631Z,2.50
2023-02-24T19:37:30.699Z,2.10
2023-02-24T19:40:03.712Z,3.50
2023-02-24T19:42:36.638Z,6.47
2023-02-24T19:45:09.836Z,3.37
2023-02-24T19:47:44.007Z,3.53
2023-02-24T19:50:17.220Z,2.67
2023-02-24T19:52:50.112Z,6.03
2023-02-24T19:55:23.060Z,5.70
2023-02-24T19:57:56.178Z,5.90
2023-02-24T20:00:29.136Z,2.93
2023-02-24T20:03:02.136Z,3.80
2023-02-24T20:05:36.386Z,7.90
2023-02-24T20:08:09.288Z,3.90
2023-02-24T20:10:42.170Z,5.77
2023-02-24T20:13:15.075Z,9.80
2023-02-24T20:15:47.975Z,5.07
2023-02-24T20:18:20.879Z,8.17
2023-02-24T20:20:57.503Z,4.73
2023-02-24T20:23:31.968Z,4.57
2023-02-24T20:26:05.278Z,4.00
2023-02-24T20:28:38.321Z,8.10
2023-02-24T20:31:13.170Z,5.43
2023-02-24T20:33:46.774Z,8.82
2023-02-24T20:36:24.195Z,4.93
2023-02-24T20:38:58.704Z,7.67
2023-02-24T20:41:31.646Z,7.03
2023-02-24T20:44:04.721Z,5.30
2023-02-24T20:46:38.289Z,6.88
2023-02-24T20:49:12.657Z,8.00
2023-02-24T20:51:45.566Z,6.73
2023-02-24T20:54:18.454Z,5.70
2023-02-24T20:56:51.385Z,6.23
2023-02-24T20:59:24.300Z,8.47
2023-02-24T21:01:57.202Z,7.70
2023-02-24T21:04:30.175Z,8.10
2023-02-24T21:07:03.123Z,6.07
2023-02-24T21:09:37.028Z,9.17
2023-02-24T21:12:10.027Z,7.00
2023-02-24T21:14:43.425Z,7.00
2023-02-24T21:17:16.819Z,7.83
2023-02-24T21:19:49.827Z,10.97
2023-02-24T21:22:22.789Z,10.53
2023-02-24T21:24:55.682Z,8.77
2023-02-24T21:27:28.619Z,8.47
2023-02-24T21:30:01.542Z,7.90
2023-02-24T21:32:34.706Z,6.27
2023-02-24T21:35:08.219Z,7.57
2023-02-24T21:37:41.171Z,7.63
2023-02-24T21:40:17.472Z,7.83
2023-02-24T21:42:50.437Z,7.37
2023-02-24T21:45:23.366Z,5.43
2023-02-24T21:47:56.660Z,6.37
2023-02-24T21:50:29.576Z,10.90
2023-02-24T21:53:02.473Z,4.50
2023-02-24T21:55:38.442Z,5.50
2023-02-24T21:58:11.360Z,6.22
2023-02-24T22:00:44.251Z,6.80
2023-02-24T22:03:17.406Z,6.83
2023-02-24T22:05:52.563Z,3.13
2023-02-24T22:08:25.527Z,5.03
2023-02-24T22:11:01.799Z,4.55
2023-02-24T22:13:34.737Z,2.13
2023-02-24T22:16:08.411Z,3.73
2023-02-24T22:18:41.677Z,3.60
2023-02-24T22:21:18.743Z,4.03
2023-02-24T22:23:52.908Z,3.33
2023-02-24T22:26:26.630Z,2.40
2023-02-24T22:28:59.941Z,3.33
2023-02-24T22:31:33.836Z,2.90
2023-02-24T22:34:08.538Z,2.67
2023-02-24T22:36:41.558Z,5.07
2023-02-24T22:39:16.449Z,3.43
2023-02-24T22:41:52.146Z,3.27
2023-02-24T22:44:25.198Z,4.30
2023-02-24T22:46:58.284Z,5.37
2023-02-24T22:49:31.207Z,5.47
2023-02-24T22:52:04.283Z,4.23
2023-02-24T22:54:37.149Z,2.63
2023-02-24T22:57:10.282Z,2.70
2023-02-24T22:59:43.194Z,3.70
2023-02-24T23:02:16.082Z,2.80
2023-02-24T23:04:48.994Z,2.87
2023-02-24T23:07:22.071Z,3.70
2023-02-24T23:09:55.066Z,2.87
2023-02-24T23:12:27.945Z,4.87
2023-02-24T23:15:00.903Z,2.70
2023-02-24T23:17:34.449Z,2.57
2023-02-24T23:20:13.698Z,2.17
2023-02-24T23:22:48.710Z,1.53
2023-02-24T23:25:23.026Z,1.27
2023-02-24T23:27:56.099Z,3.40
2023-02-24T23:30:29.054Z,1.90
2023-02-24T23:33:02.973Z,3.67
2023-02-24T23:35:35.905Z,1.27
2023-02-24T23:38:09.710Z,1.40
2023-02-24T23:40:51.163Z,1.83
2023-02-24T23:43:24.101Z,5.13
2023-02-24T23:45:57.027Z,3.60
2023-02-24T23:48:29.956Z,1.37
2023-02-24T23:51:03.726Z,1.20
2023-02-24T23:53:43.447Z,5.80
2023-02-24T23:56:16.368Z,2.63
2023-02-24T23:58:53.516Z,2.17
